Leatherhead, United Kingdom
Current Conditions -  °F | °C
As of 8:20 AM on Thursday 29 Jan 2015 (Local Time) from EGKK Reporting Station
Few Clouds Few Clouds  
Wind Chill: 28°   Ceiling: Unl
Heat Index: 36°   Visibility: 6mi
Dew Point: 32°   Wind: 12mph
Humidity: 87%   Direction: 220°SW
Pressure: 29.23"   Gusts: NA
Location:  51.3°N, 0.33°W
Report Text: EGKK 290820Z 22010KT 9999 FEW020 02/00 Q0990
Loading
Personal Weather Stations






























Interactive Weather Map New forecast layout! Learn more

10-Day Weather Forecast

Advertisements
Track Severe Weather on mobile